Ana Sayfa
METAR-TAF:

METAR-TAF

Havaalanları :

Proserpine, Avustralya

Enlem: 20-29-42S, Boylam: 148-33-06E, yükseklik: 25 m

Güncel hava durumu gözlemi

Rapor saat 20:00 UTC de 52 dakika önce yapıldı.
Rüzgar güney/güneybatıdan 1 kt
Sıcaklık 19°C
Nem 94%
Basınç 1014 hPa
Görüş mesafesi: 1100 m
2700 ft yükseklikte parçalı bulutlu

METAR: YBPN 162000Z AUTO 21001KT 1100 // SCT027 19/18 Q1014

Saat: 06:52 (20:52 UTC)


TAF: eksik

4.000'den fazla havaalanı için hava durumu gözlemleri ve tahminleri (METAR ve TAF raporları).

Kullanılabilir istasyonlar harita üzerinde sarı ve kırmızı noktalarla gösterilir.

İstasyonun adını görmek için fareyi noktanın üzerinde gezdirin.

Sonrasında hava gözlem ve tahminlerini görmek için tıklayın.

Haritayı değiştirmek için: yaklaştırmak için siyah artı işaretli yeşil düğmeye ve uzaklaştırmak için de eksi işaretli düğmeye hızla tıklayın; bitişik haritalar için yeşil okları kullanın.


METAR-TAF: